createdAt,value
2023-05-05T00:00:27.320Z,60.47
2023-05-05T00:00:58.845Z,61.54
2023-05-05T00:01:30.379Z,61.51
2023-05-05T00:02:01.882Z,61.22
2023-05-05T00:02:33.397Z,61.23
2023-05-05T00:03:04.989Z,61.38
2023-05-05T00:03:36.586Z,61.60
2023-05-05T00:04:08.140Z,61.08
2023-05-05T00:04:39.615Z,61.65
2023-05-05T00:05:11.210Z,60.95
2023-05-05T00:05:42.623Z,61.81
2023-05-05T00:06:14.622Z,62.25
2023-05-05T00:06:46.285Z,62.13
2023-05-05T00:07:17.894Z,61.74
2023-05-05T00:07:49.754Z,61.57
2023-05-05T00:08:22.449Z,61.78
2023-05-05T00:08:54.282Z,62.23
2023-05-05T00:09:25.714Z,62.58
2023-05-05T00:09:57.200Z,62.67
2023-05-05T00:10:28.563Z,62.66
2023-05-05T00:11:00.082Z,63.22
2023-05-05T00:11:31.480Z,62.69
2023-05-05T00:12:03.020Z,62.93
2023-05-05T00:12:34.483Z,62.68
2023-05-05T00:13:06.648Z,62.95
2023-05-05T00:13:38.616Z,62.58
2023-05-05T00:14:09.989Z,62.92
2023-05-05T00:14:41.549Z,63.37
2023-05-05T00:15:13.063Z,63.14
2023-05-05T00:15:46.943Z,63.29
2023-05-05T00:16:18.506Z,63.31
2023-05-05T00:16:49.863Z,62.67
2023-05-05T00:17:21.745Z,63.20
2023-05-05T00:17:53.419Z,62.97
2023-05-05T00:18:24.950Z,63.09
2023-05-05T00:18:56.454Z,63.26
2023-05-05T00:19:27.846Z,62.76
2023-05-05T00:19:59.700Z,63.26
2023-05-05T00:20:31.531Z,63.19
2023-05-05T00:21:04.445Z,63.00
2023-05-05T00:21:35.906Z,62.82
2023-05-05T00:22:07.375Z,63.13
2023-05-05T00:22:38.771Z,63.62
2023-05-05T00:23:10.586Z,63.72
2023-05-05T00:23:41.935Z,63.14
2023-05-05T00:24:13.347Z,63.11
2023-05-05T00:24:44.790Z,62.94
2023-05-05T00:25:16.240Z,63.09
2023-05-05T00:25:47.738Z,62.90
2023-05-05T00:26:19.204Z,63.75
2023-05-05T00:26:51.030Z,63.25
2023-05-05T00:27:22.422Z,63.65
2023-05-05T00:27:53.779Z,63.60
2023-05-05T00:28:25.254Z,62.80
2023-05-05T00:28:57.122Z,63.13
2023-05-05T00:29:28.488Z,63.18
2023-05-05T00:29:59.847Z,63.21
2023-05-05T00:30:31.663Z,63.79
2023-05-05T00:31:03.041Z,63.42
2023-05-05T00:31:34.602Z,63.28
2023-05-05T00:32:06.335Z,63.68
2023-05-05T00:32:38.002Z,63.27
2023-05-05T00:33:09.444Z,63.66
2023-05-05T00:33:40.857Z,63.26
2023-05-05T00:34:12.306Z,63.51
2023-05-05T00:34:43.961Z,63.92
2023-05-05T00:35:16.344Z,63.33
2023-05-05T00:35:47.694Z,63.73
2023-05-05T00:36:19.327Z,63.35
2023-05-05T00:36:50.697Z,63.79
2023-05-05T00:37:22.223Z,63.27
2023-05-05T00:37:53.740Z,63.29
2023-05-05T00:38:25.066Z,63.41
2023-05-05T00:38:56.540Z,63.40
2023-05-05T00:39:27.905Z,63.89
2023-05-05T00:39:59.440Z,64.13
2023-05-05T00:40:31.496Z,63.50
2023-05-05T00:41:02.962Z,64.08
2023-05-05T00:41:34.358Z,64.32
2023-05-05T00:42:05.819Z,63.84
2023-05-05T00:42:47.999Z,63.90
2023-05-05T00:43:19.542Z,64.24
2023-05-05T00:43:52.417Z,64.80
2023-05-05T00:44:41.390Z,64.54
2023-05-05T00:45:16.751Z,64.69
2023-05-05T00:45:56.350Z,65.20
2023-05-05T00:46:30.318Z,64.39
2023-05-05T00:47:01.703Z,64.36
2023-05-05T00:47:33.372Z,64.92
2023-05-05T00:48:06.545Z,65.06
2023-05-05T00:48:38.124Z,64.84
2023-05-05T00:49:09.973Z,65.02
2023-05-05T00:49:41.460Z,64.69
2023-05-05T00:50:22.654Z,64.48
2023-05-05T00:50:54.238Z,64.64
2023-05-05T00:51:26.295Z,65.66
2023-05-05T00:51:57.790Z,65.59
2023-05-05T00:52:29.562Z,65.26
2023-05-05T00:53:02.964Z,64.75
2023-05-05T00:53:34.785Z,64.76
2023-05-05T00:54:06.151Z,65.31
2023-05-05T00:54:38.217Z,65.84
2023-05-05T00:55:10.273Z,65.34
2023-05-05T00:55:41.796Z,65.29
2023-05-05T00:56:14.320Z,65.27
2023-05-05T00:56:45.821Z,64.93
2023-05-05T00:57:17.776Z,65.65
2023-05-05T00:57:49.976Z,64.99
2023-05-05T00:58:21.489Z,65.46
2023-05-05T00:58:53.348Z,65.52
2023-05-05T00:59:25.161Z,65.31
2023-05-05T00:59:58.703Z,65.19
2023-05-05T01:00:30.932Z,65.31
2023-05-05T01:01:02.342Z,65.60
2023-05-05T01:01:33.980Z,65.61
2023-05-05T01:02:05.673Z,65.02
2023-05-05T01:02:37.191Z,65.26
2023-05-05T01:03:08.761Z,65.90
2023-05-05T01:03:43.928Z,66.15
2023-05-05T01:04:15.620Z,65.00
2023-05-05T01:04:47.023Z,65.96
2023-05-05T01:05:20.114Z,65.79
2023-05-05T01:05:57.062Z,65.69
2023-05-05T01:06:38.234Z,66.28
2023-05-05T01:07:37.130Z,65.99
2023-05-05T01:08:26.687Z,66.06
2023-05-05T01:09:17.090Z,65.36
2023-05-05T01:10:11.022Z,66.07
2023-05-05T01:10:56.436Z,65.88
2023-05-05T01:12:24.650Z,65.63
2023-05-05T01:13:23.354Z,66.54
2023-05-05T01:14:12.141Z,66.22
2023-05-05T01:14:59.326Z,66.84
2023-05-05T01:15:41.265Z,66.75
2023-05-05T01:16:23.308Z,67.25
2023-05-05T01:17:08.138Z,66.60
2023-05-05T01:17:51.644Z,67.31
2023-05-05T01:18:35.193Z,66.88
2023-05-05T01:19:48.779Z,66.32
2023-05-05T01:20:38.557Z,66.98
2023-05-05T01:21:19.100Z,68.15
2023-05-05T01:21:55.895Z,68.35
2023-05-05T01:22:36.530Z,67.89
2023-05-05T01:23:13.500Z,68.95
2023-05-05T01:23:58.955Z,69.26
2023-05-05T01:25:11.666Z,68.06
2023-05-05T01:26:08.441Z,69.09
2023-05-05T01:27:19.708Z,68.05
2023-05-05T01:28:18.454Z,69.13
2023-05-05T01:29:07.793Z,69.58
2023-05-05T01:30:16.676Z,69.37
2023-05-05T01:31:21.618Z,69.65
2023-05-05T01:32:02.806Z,70.68
2023-05-05T01:32:40.936Z,70.26
2023-05-05T01:33:16.262Z,70.46
2023-05-05T01:33:58.244Z,71.01
2023-05-05T01:34:36.950Z,71.30
2023-05-05T01:35:26.684Z,70.75
2023-05-05T01:36:07.350Z,71.39
2023-05-05T01:36:44.368Z,71.86
2023-05-05T01:37:22.684Z,71.08
2023-05-05T01:38:05.619Z,71.05
2023-05-05T01:38:41.110Z,70.63
2023-05-05T01:39:16.063Z,71.02
2023-05-05T01:39:51.914Z,71.46
2023-05-05T01:40:27.931Z,71.95
2023-05-05T01:41:12.992Z,72.18
2023-05-05T01:41:48.089Z,72.44
2023-05-05T01:42:22.256Z,71.60
2023-05-05T01:42:55.040Z,72.51
2023-05-05T01:43:30.711Z,72.45
2023-05-05T01:44:06.007Z,72.12
2023-05-05T01:44:38.108Z,72.82
2023-05-05T01:45:13.310Z,72.81
2023-05-05T01:45:46.692Z,73.27
2023-05-05T01:46:21.586Z,72.08
2023-05-05T01:46:54.603Z,72.92
2023-05-05T01:47:27.651Z,72.76
2023-05-05T01:48:00.547Z,73.52
2023-05-05T01:48:33.387Z,72.63
2023-05-05T01:49:06.513Z,73.25
2023-05-05T01:49:38.562Z,71.72
2023-05-05T01:50:11.919Z,72.87
2023-05-05T01:50:46.571Z,72.27
2023-05-05T01:51:22.134Z,72.66
2023-05-05T01:51:56.082Z,71.98
2023-05-05T01:52:29.453Z,73.19
2023-05-05T01:53:03.219Z,73.30
2023-05-05T01:53:36.263Z,72.77
2023-05-05T01:54:09.122Z,73.15
2023-05-05T01:54:42.230Z,73.21
2023-05-05T01:55:16.426Z,74.00
2023-05-05T01:55:50.168Z,74.27
2023-05-05T01:56:25.132Z,73.48
2023-05-05T01:56:58.668Z,74.06
2023-05-05T01:57:33.178Z,73.90
2023-05-05T01:58:07.322Z,73.68
2023-05-05T01:58:41.718Z,73.65
2023-05-05T01:59:13.708Z,73.83
2023-05-05T01:59:45.213Z,73.11
2023-05-05T02:00:19.426Z,72.60
2023-05-05T02:00:51.799Z,73.49
2023-05-05T02:01:26.433Z,73.11
2023-05-05T02:02:00.771Z,73.77
2023-05-05T02:02:33.944Z,73.80
2023-05-05T02:03:08.445Z,74.20
2023-05-05T02:03:41.503Z,74.45
2023-05-05T02:04:14.866Z,74.26
2023-05-05T02:04:48.871Z,73.71
2023-05-05T02:05:22.773Z,73.28
2023-05-05T02:05:55.225Z,73.96
2023-05-05T02:06:29.356Z,74.01
2023-05-05T02:07:03.298Z,74.22
2023-05-05T02:07:35.751Z,74.27
2023-05-05T02:08:09.435Z,74.21
2023-05-05T02:08:41.796Z,74.51
2023-05-05T02:09:15.114Z,75.53
2023-05-05T02:09:48.071Z,74.93
2023-05-05T02:10:19.427Z,74.03
2023-05-05T02:10:52.139Z,74.26
2023-05-05T02:11:23.846Z,74.28
2023-05-05T02:11:58.171Z,74.43
2023-05-05T02:12:31.594Z,74.32
2023-05-05T02:13:04.514Z,74.44
2023-05-05T02:13:37.738Z,74.45
2023-05-05T02:14:11.159Z,74.62
2023-05-05T02:14:44.024Z,74.92
2023-05-05T02:15:16.570Z,74.76
2023-05-05T02:15:50.062Z,73.91
2023-05-05T02:16:23.681Z,74.09
2023-05-05T02:16:57.096Z,74.22
2023-05-05T02:17:29.901Z,73.91
2023-05-05T02:18:02.781Z,74.05
2023-05-05T02:18:36.106Z,74.23
2023-05-05T02:19:08.686Z,74.37
2023-05-05T02:19:43.067Z,74.76
2023-05-05T02:20:16.071Z,74.25
2023-05-05T02:20:47.768Z,74.55
2023-05-05T02:21:20.021Z,74.62
2023-05-05T02:21:51.477Z,75.16
2023-05-05T02:22:22.995Z,74.41
2023-05-05T02:22:54.508Z,74.46
2023-05-05T02:23:26.382Z,74.70
2023-05-05T02:23:58.429Z,76.38
2023-05-05T02:24:30.908Z,75.50
2023-05-05T02:25:03.215Z,75.74
2023-05-05T02:25:41.906Z,75.87
2023-05-05T02:26:16.732Z,75.91
2023-05-05T02:26:50.512Z,77.43
2023-05-05T02:27:24.318Z,77.53
2023-05-05T02:27:59.577Z,77.73
2023-05-05T02:28:42.703Z,77.97
2023-05-05T02:29:20.208Z,78.14
2023-05-05T02:30:01.386Z,78.65
2023-05-05T02:30:36.295Z,78.89
2023-05-05T02:31:09.584Z,79.26
2023-05-05T02:31:50.655Z,78.52
2023-05-05T02:32:33.600Z,78.43
2023-05-05T02:33:11.617Z,80.21
2023-05-05T02:33:45.700Z,78.85
2023-05-05T02:34:22.330Z,79.25
2023-05-05T02:34:54.736Z,78.92
2023-05-05T02:35:35.320Z,79.79
2023-05-05T02:36:15.965Z,79.67
2023-05-05T02:36:51.741Z,79.45
2023-05-05T02:37:25.521Z,78.71
2023-05-05T02:38:02.468Z,79.67
2023-05-05T02:38:37.169Z,79.38
2023-05-05T02:39:14.407Z,79.24
2023-05-05T02:39:58.315Z,80.16
2023-05-05T02:40:33.002Z,79.21
2023-05-05T02:41:06.233Z,79.69
2023-05-05T02:41:39.841Z,79.91
2023-05-05T02:42:15.428Z,79.28
2023-05-05T02:42:49.674Z,79.61
2023-05-05T02:43:23.133Z,80.73
2023-05-05T02:43:57.820Z,80.31
2023-05-05T02:44:31.778Z,80.42
2023-05-05T02:45:10.040Z,79.36
2023-05-05T02:45:41.754Z,79.92
2023-05-05T02:46:13.184Z,79.40
2023-05-05T02:46:45.319Z,79.60
2023-05-05T02:47:16.843Z,79.92
2023-05-05T02:47:48.524Z,79.82
2023-05-05T02:48:20.344Z,80.25
2023-05-05T02:48:51.785Z,80.05
2023-05-05T02:49:23.229Z,80.33
2023-05-05T02:49:54.639Z,79.87
2023-05-05T02:50:26.012Z,79.18
2023-05-05T02:50:57.517Z,79.76
2023-05-05T02:51:28.939Z,79.80
2023-05-05T02:52:01.071Z,79.80
2023-05-05T02:52:33.356Z,79.58
2023-05-05T02:53:05.019Z,80.04
2023-05-05T02:53:36.756Z,79.96
2023-05-05T02:54:08.415Z,79.35
2023-05-05T02:54:40.321Z,80.31
2023-05-05T02:55:12.542Z,80.09
2023-05-05T02:55:51.769Z,79.79
2023-05-05T02:56:44.390Z,79.19
2023-05-05T02:57:19.813Z,79.42
2023-05-05T02:58:00.588Z,80.62
2023-05-05T02:58:46.107Z,79.83
2023-05-05T02:59:36.494Z,80.09
2023-05-05T03:00:18.239Z,79.44
2023-05-05T03:00:58.534Z,79.27
2023-05-05T03:02:11.472Z,79.47
2023-05-05T03:03:01.705Z,79.52
2023-05-05T03:03:44.601Z,79.12
2023-05-05T03:04:25.538Z,80.20
2023-05-05T03:05:06.562Z,80.48
2023-05-05T03:05:45.788Z,80.52
2023-05-05T03:06:19.755Z,80.45
2023-05-05T03:06:55.482Z,80.36
2023-05-05T03:07:37.519Z,79.41
2023-05-05T03:08:27.483Z,80.17
2023-05-05T03:09:08.400Z,80.07
2023-05-05T03:10:02.947Z,79.86
2023-05-05T03:11:04.544Z,80.24
2023-05-05T03:11:40.517Z,80.85
2023-05-05T03:12:18.024Z,81.25
2023-05-05T03:12:54.196Z,80.79
2023-05-05T03:13:28.185Z,81.13
2023-05-05T03:14:16.934Z,80.68
2023-05-05T03:14:54.067Z,80.57
2023-05-05T03:15:30.568Z,80.99
2023-05-05T03:16:06.791Z,80.70
2023-05-05T03:16:40.751Z,80.58
2023-05-05T03:17:13.400Z,81.30
2023-05-05T03:17:46.506Z,80.52
2023-05-05T03:18:19.919Z,80.88
2023-05-05T03:18:52.508Z,80.85
2023-05-05T03:19:24.860Z,80.49
2023-05-05T03:19:57.079Z,81.08
2023-05-05T03:20:29.640Z,80.74
2023-05-05T03:21:08.389Z,81.01
2023-05-05T03:21:40.484Z,80.98
2023-05-05T03:22:12.465Z,81.15
2023-05-05T03:22:44.622Z,81.23
2023-05-05T03:23:20.696Z,80.38
2023-05-05T03:23:52.428Z,80.70
2023-05-05T03:24:23.968Z,81.57
2023-05-05T03:24:55.391Z,81.72
2023-05-05T03:25:47.390Z,82.27
2023-05-05T03:26:18.855Z,81.91
2023-05-05T03:26:50.238Z,81.85
2023-05-05T03:27:21.942Z,81.40
2023-05-05T03:27:53.328Z,81.09
2023-05-05T03:28:24.717Z,82.02
2023-05-05T03:28:56.556Z,82.22
2023-05-05T03:29:29.463Z,82.41
2023-05-05T03:30:01.028Z,82.60
2023-05-05T03:30:32.449Z,82.50
2023-05-05T03:31:04.066Z,81.58
2023-05-05T03:31:35.895Z,82.47
2023-05-05T03:32:07.964Z,82.97
2023-05-05T03:32:39.378Z,82.95
2023-05-05T03:33:11.780Z,83.52
2023-05-05T03:33:43.250Z,84.56
2023-05-05T03:34:14.717Z,84.36
2023-05-05T03:34:46.209Z,83.84
2023-05-05T03:35:17.914Z,83.50
2023-05-05T03:35:49.307Z,82.79
2023-05-05T03:36:20.754Z,82.66
2023-05-05T03:36:52.355Z,82.90
2023-05-05T03:37:23.851Z,82.61
2023-05-05T03:37:58.124Z,82.70
2023-05-05T03:38:29.459Z,83.19
2023-05-05T03:39:01.059Z,82.40
2023-05-05T03:39:32.467Z,82.56
2023-05-05T03:40:03.986Z,83.14
2023-05-05T03:40:43.536Z,82.89
2023-05-05T03:41:15.834Z,82.17
2023-05-05T03:41:47.442Z,82.38
2023-05-05T03:42:18.880Z,83.04
2023-05-05T03:42:50.478Z,82.78
2023-05-05T03:43:21.900Z,83.12
2023-05-05T03:43:53.615Z,83.11
2023-05-05T03:44:25.168Z,82.70
2023-05-05T03:44:57.332Z,82.89
2023-05-05T03:45:28.736Z,82.48
2023-05-05T03:46:00.183Z,81.55
2023-05-05T03:46:31.606Z,82.42
2023-05-05T03:47:03.015Z,82.77
2023-05-05T03:47:34.520Z,83.45
2023-05-05T03:48:06.593Z,81.92
2023-05-05T03:48:38.021Z,82.40
2023-05-05T03:49:09.783Z,82.59
2023-05-05T03:49:41.391Z,82.51
2023-05-05T03:50:12.779Z,82.30
2023-05-05T03:50:48.772Z,82.26
2023-05-05T03:51:20.181Z,81.85
2023-05-05T03:51:51.639Z,82.37
2023-05-05T03:52:23.169Z,82.81
2023-05-05T03:52:55.620Z,82.80
2023-05-05T03:53:26.981Z,83.21
2023-05-05T03:53:58.423Z,82.14
2023-05-05T03:54:29.858Z,82.80
2023-05-05T03:55:01.315Z,82.92
2023-05-05T03:55:32.957Z,83.49
2023-05-05T03:56:04.914Z,83.61
2023-05-05T03:56:36.327Z,84.17
2023-05-05T03:57:07.720Z,83.04
2023-05-05T03:57:39.167Z,83.42
2023-05-05T03:58:11.136Z,83.40
2023-05-05T03:58:42.649Z,83.27
2023-05-05T03:59:14.057Z,82.69
2023-05-05T03:59:45.641Z,83.80
2023-05-05T04:00:17.294Z,83.19
2023-05-05T04:00:48.711Z,82.99
2023-05-05T04:01:20.342Z,82.69
2023-05-05T04:01:51.733Z,83.32
2023-05-05T04:02:23.191Z,83.31
2023-05-05T04:02:54.841Z,83.06
2023-05-05T04:03:26.484Z,83.33
2023-05-05T04:03:57.957Z,83.65
2023-05-05T04:04:29.402Z,83.25
2023-05-05T04:05:00.926Z,83.98
2023-05-05T04:05:32.391Z,84.35
2023-05-05T04:06:04.083Z,83.64
2023-05-05T04:06:35.427Z,84.43
2023-05-05T04:07:06.754Z,83.55
2023-05-05T04:07:38.183Z,83.62
2023-05-05T04:08:09.900Z,83.47
2023-05-05T04:08:41.534Z,83.39
2023-05-05T04:09:13.791Z,83.40
2023-05-05T04:09:45.507Z,83.30
2023-05-05T04:10:17.060Z,83.63
2023-05-05T04:10:48.492Z,84.08
2023-05-05T04:11:22.460Z,83.30
2023-05-05T04:11:53.891Z,83.46
2023-05-05T04:12:25.365Z,83.51
2023-05-05T04:12:56.947Z,84.05
2023-05-05T04:13:29.490Z,82.76
2023-05-05T04:14:00.954Z,83.47
2023-05-05T04:14:32.494Z,84.15
2023-05-05T04:15:04.204Z,83.87
2023-05-05T04:15:35.670Z,83.94
2023-05-05T04:16:08.703Z,84.23
2023-05-05T04:16:40.241Z,83.78
2023-05-05T04:17:11.653Z,83.73
2023-05-05T04:17:43.078Z,84.71
2023-05-05T04:18:14.480Z,84.19
2023-05-05T04:18:45.832Z,83.70
2023-05-05T04:19:17.621Z,84.41
2023-05-05T04:19:49.190Z,84.33
2023-05-05T04:20:21.413Z,84.58
2023-05-05T04:20:53.090Z,84.03
2023-05-05T04:21:24.796Z,83.31
2023-05-05T04:21:56.340Z,84.03
2023-05-05T04:22:27.721Z,83.52
2023-05-05T04:22:59.265Z,83.11
2023-05-05T04:23:30.857Z,83.27
2023-05-05T04:24:02.257Z,83.34
2023-05-05T04:24:33.618Z,83.95
2023-05-05T04:25:05.350Z,85.19
2023-05-05T04:25:37.029Z,84.21
2023-05-05T04:26:08.391Z,85.02
2023-05-05T04:26:39.804Z,85.09
2023-05-05T04:27:11.195Z,85.05
2023-05-05T04:27:42.692Z,85.33
2023-05-05T04:28:14.187Z,85.66
2023-05-05T04:28:45.938Z,85.44
2023-05-05T04:29:17.691Z,85.33
2023-05-05T04:29:49.086Z,85.37
2023-05-05T04:30:20.676Z,84.67
2023-05-05T04:30:52.187Z,85.05
2023-05-05T04:31:23.927Z,85.02
2023-05-05T04:31:56.198Z,84.88
2023-05-05T04:32:27.606Z,85.36
2023-05-05T04:32:59.044Z,85.35
2023-05-05T04:33:30.724Z,84.56
2023-05-05T04:34:02.457Z,84.57
2023-05-05T04:34:33.880Z,84.94
2023-05-05T04:35:05.724Z,85.20
2023-05-05T04:35:37.113Z,84.87
2023-05-05T04:36:08.801Z,85.09
2023-05-05T04:36:40.285Z,84.68
2023-05-05T04:37:11.994Z,84.90
2023-05-05T04:37:43.424Z,84.82
2023-05-05T04:38:15.024Z,84.62
2023-05-05T04:38:46.646Z,84.69
2023-05-05T04:39:18.032Z,85.81
2023-05-05T04:39:49.414Z,85.41
2023-05-05T04:40:21.341Z,84.72
2023-05-05T04:40:52.753Z,84.38
2023-05-05T04:41:24.179Z,85.16
2023-05-05T04:41:55.540Z,84.40
2023-05-05T04:42:26.885Z,84.64
2023-05-05T04:42:58.302Z,85.62
2023-05-05T04:43:29.714Z,85.43
2023-05-05T04:44:01.198Z,85.65
2023-05-05T04:44:33.932Z,84.87
2023-05-05T04:45:05.979Z,85.03
2023-05-05T04:45:37.377Z,85.31
2023-05-05T04:46:08.959Z,85.78
2023-05-05T04:46:40.440Z,86.41
2023-05-05T04:47:14.420Z,86.00
2023-05-05T04:47:46.558Z,85.71
2023-05-05T04:48:20.986Z,85.12
2023-05-05T04:48:52.578Z,85.21
2023-05-05T04:49:23.937Z,84.38
2023-05-05T04:49:55.946Z,84.43
2023-05-05T04:50:27.590Z,85.34
2023-05-05T04:51:04.495Z,86.45
2023-05-05T04:51:35.981Z,85.68
2023-05-05T04:52:07.375Z,85.17
2023-05-05T04:52:38.978Z,85.31
2023-05-05T04:53:10.547Z,84.87
2023-05-05T04:53:42.523Z,85.66
2023-05-05T04:54:14.133Z,85.54
2023-05-05T04:54:45.502Z,85.55
2023-05-05T04:55:16.904Z,85.19
2023-05-05T04:55:48.407Z,85.12
2023-05-05T04:56:19.828Z,84.69
2023-05-05T04:56:51.606Z,85.03
2023-05-05T04:57:22.990Z,85.30
2023-05-05T04:57:54.377Z,84.67
2023-05-05T04:58:25.834Z,84.84
2023-05-05T04:58:57.256Z,84.94
2023-05-05T04:59:28.654Z,85.91
2023-05-05T05:00:00.818Z,85.06
2023-05-05T05:00:32.461Z,84.98
2023-05-05T05:01:03.879Z,85.61
2023-05-05T05:01:37.655Z,86.06
2023-05-05T05:02:09.887Z,86.26
2023-05-05T05:02:41.570Z,87.06
2023-05-05T05:03:13.169Z,86.56
2023-05-05T05:03:44.795Z,86.30
2023-05-05T05:04:18.538Z,85.33
2023-05-05T05:04:50.054Z,85.71
2023-05-05T05:05:21.760Z,85.35
2023-05-05T05:05:53.211Z,85.53
2023-05-05T05:06:24.672Z,85.38
2023-05-05T05:06:58.942Z,85.20
2023-05-05T05:07:30.898Z,85.28
2023-05-05T05:08:02.543Z,84.60
2023-05-05T05:08:34.019Z,85.22
2023-05-05T05:09:05.490Z,85.44
2023-05-05T05:09:36.973Z,85.39
2023-05-05T05:10:09.139Z,84.93
2023-05-05T05:10:40.787Z,85.32
2023-05-05T05:11:12.511Z,85.40
2023-05-05T05:11:43.896Z,84.74
2023-05-05T05:12:15.311Z,84.79
2023-05-05T05:12:48.189Z,85.72
2023-05-05T05:13:19.590Z,85.78
2023-05-05T05:13:51.076Z,85.39
2023-05-05T05:14:22.556Z,85.54
2023-05-05T05:14:54.538Z,85.35
2023-05-05T05:15:26.032Z,86.14
2023-05-05T05:15:57.452Z,86.30
2023-05-05T05:16:28.851Z,85.65
2023-05-05T05:17:00.244Z,85.91
2023-05-05T05:17:31.664Z,85.34
2023-05-05T05:18:03.315Z,85.37
2023-05-05T05:18:34.724Z,84.71
2023-05-05T05:19:06.211Z,84.54
2023-05-05T05:19:37.676Z,84.11
2023-05-05T05:20:09.761Z,84.27
2023-05-05T05:20:41.617Z,84.23
2023-05-05T05:21:13.208Z,84.12
2023-05-05T05:21:44.564Z,84.40
2023-05-05T05:22:15.942Z,85.11
2023-05-05T05:22:47.295Z,84.57
2023-05-05T05:23:18.680Z,84.55
2023-05-05T05:23:50.024Z,84.05
2023-05-05T05:24:21.418Z,85.39
2023-05-05T05:24:53.035Z,84.94
2023-05-05T05:25:24.778Z,84.57
2023-05-05T05:25:57.114Z,85.03
2023-05-05T05:26:28.622Z,85.76
2023-05-05T05:26:59.986Z,85.52
2023-05-05T05:27:31.651Z,85.23
2023-05-05T05:28:10.072Z,85.13
2023-05-05T05:28:42.729Z,84.92
2023-05-05T05:29:14.168Z,84.57
2023-05-05T05:29:45.630Z,84.15
2023-05-05T05:30:17.064Z,85.73
2023-05-05T05:30:48.636Z,85.95
2023-05-05T05:31:20.398Z,85.41
2023-05-05T05:31:51.847Z,84.80
2023-05-05T05:32:23.605Z,84.78
2023-05-05T05:32:55.028Z,84.56
2023-05-05T05:33:26.377Z,84.93
2023-05-05T05:33:57.748Z,84.63
2023-05-05T05:34:29.183Z,84.40
2023-05-05T05:35:00.713Z,83.91
2023-05-05T05:35:32.269Z,84.57
2023-05-05T05:36:04.025Z,84.34
2023-05-05T05:36:35.435Z,84.25
2023-05-05T05:37:06.973Z,85.12
2023-05-05T05:37:38.605Z,84.65
2023-05-05T05:38:10.032Z,84.99
2023-05-05T05:38:41.513Z,84.22
2023-05-05T05:39:13.452Z,84.12
2023-05-05T05:39:51.301Z,83.76
2023-05-05T05:40:22.715Z,84.79
2023-05-05T05:40:54.527Z,84.74
2023-05-05T05:41:26.061Z,84.69
2023-05-05T05:41:57.513Z,85.81
2023-05-05T05:42:28.895Z,86.02
2023-05-05T05:43:00.266Z,85.75
2023-05-05T05:43:31.634Z,85.33
2023-05-05T05:44:03.518Z,85.28
2023-05-05T05:44:34.904Z,85.60
2023-05-05T05:45:07.661Z,85.64
2023-05-05T05:45:39.061Z,85.41
2023-05-05T05:46:10.545Z,85.59
2023-05-05T05:46:42.008Z,85.52
2023-05-05T05:47:13.459Z,85.16
2023-05-05T05:47:44.896Z,85.17
2023-05-05T05:48:16.461Z,85.29
2023-05-05T05:48:48.000Z,85.13
2023-05-05T05:49:19.384Z,85.88
2023-05-05T05:49:51.194Z,85.51
2023-05-05T05:50:22.663Z,85.23
2023-05-05T05:50:54.623Z,85.33
2023-05-05T05:51:26.471Z,85.02
2023-05-05T05:51:57.864Z,85.18
2023-05-05T05:52:29.283Z,86.04
2023-05-05T05:53:00.653Z,85.35
2023-05-05T05:53:32.128Z,86.22
2023-05-05T05:54:03.743Z,84.92
2023-05-05T05:54:35.644Z,84.79
2023-05-05T05:55:07.924Z,85.48
2023-05-05T05:55:39.323Z,85.94
2023-05-05T05:56:10.662Z,85.28
2023-05-05T05:56:42.091Z,85.11
2023-05-05T05:57:13.527Z,84.99
2023-05-05T05:57:44.936Z,85.33
2023-05-05T05:58:17.151Z,85.42
2023-05-05T05:58:48.708Z,85.95
2023-05-05T05:59:20.263Z,85.82
2023-05-05T05:59:51.758Z,85.67
2023-05-05T06:00:23.460Z,85.24
2023-05-05T06:00:54.876Z,85.61
2023-05-05T06:01:26.224Z,85.18
2023-05-05T06:01:57.703Z,85.57
2023-05-05T06:02:29.297Z,86.03
2023-05-05T06:03:01.008Z,86.12
2023-05-05T06:03:32.706Z,85.76
2023-05-05T06:04:04.264Z,85.16
2023-05-05T06:04:35.812Z,85.11
2023-05-05T06:05:08.129Z,85.30
2023-05-05T06:05:39.585Z,85.02
2023-05-05T06:06:10.967Z,85.24
2023-05-05T06:06:42.348Z,84.44
2023-05-05T06:07:13.707Z,84.70
2023-05-05T06:07:45.167Z,84.50
2023-05-05T06:08:16.570Z,84.82
2023-05-05T06:08:47.921Z,84.51
2023-05-05T06:09:19.658Z,84.09
2023-05-05T06:09:51.149Z,84.71
2023-05-05T06:10:27.955Z,84.86
2023-05-05T06:11:00.599Z,85.64
2023-05-05T06:11:33.064Z,85.64
2023-05-05T06:12:04.615Z,85.31
2023-05-05T06:12:36.056Z,85.31
2023-05-05T06:13:07.622Z,85.35
2023-05-05T06:13:39.134Z,85.21
2023-05-05T06:14:10.657Z,85.38
2023-05-05T06:14:42.124Z,84.16
2023-05-05T06:15:13.462Z,84.40
2023-05-05T06:15:44.952Z,84.41
2023-05-05T06:16:16.356Z,84.71
2023-05-05T06:16:47.808Z,84.27
2023-05-05T06:17:19.191Z,84.24
2023-05-05T06:17:51.115Z,83.61
2023-05-05T06:18:22.826Z,84.02
2023-05-05T06:18:54.256Z,83.86
2023-05-05T06:19:25.797Z,83.32
2023-05-05T06:19:57.247Z,83.26
2023-05-05T06:20:28.708Z,82.88
2023-05-05T06:21:00.302Z,83.12
2023-05-05T06:21:31.727Z,83.29
2023-05-05T06:22:03.288Z,83.54
2023-05-05T06:22:34.679Z,83.33
2023-05-05T06:23:06.479Z,83.56
2023-05-05T06:23:37.940Z,83.18
2023-05-05T06:24:09.453Z,82.92
2023-05-05T06:24:40.829Z,82.78
2023-05-05T06:25:12.241Z,83.47
2023-05-05T06:25:43.654Z,83.12
2023-05-05T06:26:15.142Z,83.64
2023-05-05T06:26:46.597Z,83.04
2023-05-05T06:27:18.047Z,82.97
2023-05-05T06:27:49.495Z,82.41
2023-05-05T06:28:21.289Z,82.36
2023-05-05T06:28:52.696Z,82.02
2023-05-05T06:29:24.159Z,81.38
2023-05-05T06:29:55.620Z,81.26
2023-05-05T06:30:27.334Z,81.11
2023-05-05T06:30:58.826Z,80.98
2023-05-05T06:31:30.527Z,80.86
2023-05-05T06:32:02.019Z,81.03
2023-05-05T06:32:33.439Z,80.61
2023-05-05T06:33:04.927Z,79.77
2023-05-05T06:33:36.421Z,79.44
2023-05-05T06:34:07.869Z,79.50
2023-05-05T06:34:39.413Z,79.69
2023-05-05T06:35:10.973Z,79.83
2023-05-05T06:35:42.311Z,79.26
2023-05-05T06:36:13.716Z,79.41
2023-05-05T06:36:45.352Z,79.81
2023-05-05T06:37:16.715Z,79.30
2023-05-05T06:37:48.115Z,79.55
2023-05-05T06:38:19.885Z,79.15
2023-05-05T06:38:51.333Z,78.69
2023-05-05T06:39:22.791Z,78.43
2023-05-05T06:39:54.235Z,79.27
2023-05-05T06:40:25.666Z,78.83
2023-05-05T06:40:58.560Z,78.76
2023-05-05T06:41:30.042Z,78.69
2023-05-05T06:42:01.975Z,78.94
2023-05-05T06:42:33.477Z,78.72
2023-05-05T06:43:05.326Z,78.91
2023-05-05T06:43:36.702Z,78.93
2023-05-05T06:44:08.055Z,78.35
2023-05-05T06:44:39.868Z,78.55
2023-05-05T06:45:11.518Z,79.37
2023-05-05T06:45:43.935Z,78.89
2023-05-05T06:46:15.567Z,79.43
2023-05-05T06:46:47.152Z,78.36
2023-05-05T06:47:18.718Z,78.24
2023-05-05T06:47:50.186Z,78.17
2023-05-05T06:48:22.143Z,78.11
2023-05-05T06:48:53.526Z,77.93
2023-05-05T06:49:24.913Z,77.42
2023-05-05T06:49:56.737Z,77.30
2023-05-05T06:50:28.411Z,77.49
2023-05-05T06:50:59.833Z,77.03
2023-05-05T06:51:31.680Z,77.01
2023-05-05T06:52:03.072Z,77.37
2023-05-05T06:52:34.651Z,77.56
2023-05-05T06:53:06.138Z,77.41
2023-05-05T06:53:37.733Z,77.39
2023-05-05T06:54:09.133Z,77.14
2023-05-05T06:54:40.852Z,77.12
2023-05-05T06:55:12.283Z,77.25
2023-05-05T06:55:46.210Z,77.05
2023-05-05T06:56:17.968Z,76.84
2023-05-05T06:56:49.445Z,77.18
2023-05-05T06:57:21.121Z,76.89
2023-05-05T06:57:53.075Z,76.89
2023-05-05T06:58:24.507Z,77.04
2023-05-05T06:58:55.860Z,77.32
2023-05-05T06:59:27.304Z,77.04
2023-05-05T06:59:58.721Z,76.37
2023-05-05T07:00:30.118Z,76.42
2023-05-05T07:01:01.617Z,76.86
2023-05-05T07:01:33.207Z,76.03
2023-05-05T07:02:04.830Z,76.08
2023-05-05T07:02:36.484Z,75.94
2023-05-05T07:03:08.168Z,76.21
2023-05-05T07:03:39.751Z,76.55
2023-05-05T07:04:11.227Z,76.52
2023-05-05T07:04:43.968Z,76.89
2023-05-05T07:05:15.686Z,75.81
2023-05-05T07:05:47.543Z,75.72
2023-05-05T07:06:19.026Z,75.90
2023-05-05T07:06:50.444Z,75.79
2023-05-05T07:07:21.849Z,75.24
2023-05-05T07:07:57.061Z,75.31
2023-05-05T07:08:28.417Z,75.14
2023-05-05T07:08:59.892Z,75.61
2023-05-05T07:09:31.337Z,75.39
2023-05-05T07:10:02.732Z,75.36
2023-05-05T07:10:34.198Z,74.65
2023-05-05T07:11:05.937Z,74.67
2023-05-05T07:11:37.953Z,74.97
2023-05-05T07:12:09.398Z,75.26
2023-05-05T07:12:40.834Z,75.17